Nearby METAR Reports

KLWM - Lawrence,MA, USA
Distance from station: NE 12mi, 19km
Updated: Thu, 28-May-2020 4:54pm EDT
Overcast
Overcast
 Wind from SSW
Wind: SSW 12 mph , 19 km/h, Gust: 21 mph , 33 km/h
Temperature: 77°F , 25°C
Dew Point: 66°F , 19°C
Humidity: 69%
Barometer: 30.14 inHg , 1020.7 hPa
Clouds: Overcast
Visibility: 10 miles , 16 km
Cloud details: Few Clouds 3100 ft
Overcast 4700 ft
2020/05/28 20:54 KLWM 282054Z 21010G18KT 10SM FEW031 OVC047 25/19 A3014 RMK AO2 SLP206 T02500189 55003
KBED - Bedford,MA, USA
Distance from station: SSE 12mi, 19km
Updated: Thu, 28-May-2020 4:51pm EDT
Overcast
Overcast
 Wind from SSW
Wind: SSW 9 mph , 15 km/h
Temperature: 79°F , 26°C
Dew Point: 64°F , 18°C
Humidity: 61%
Barometer: 30.13 inHg , 1020.3 hPa
Clouds: Overcast
Visibility: 10 miles , 16 km
Cloud details: Overcast 4700 ft
2020/05/28 20:51 KBED 282051Z 21008KT 10SM OVC047 26/18 A3013 RMK AO2 SLP212 60000 T02560183 56007

Metar display script from Saratoga-Weather.org